sensor_id;sensor_type;location;lat;lon;timestamp;P1;durP1;ratioP1;P2;durP2;ratioP2
45296;SDS011;31040;51.622;10.420;2024-01-11T00:00:36;49.40;;;20.73;;
45296;SDS011;31040;51.622;10.420;2024-01-11T00:03:04;45.45;;;21.42;;
45296;SDS011;31040;51.622;10.420;2024-01-11T00:05:32;45.63;;;19.92;;
45296;SDS011;31040;51.622;10.420;2024-01-11T00:07:59;43.25;;;20.58;;
45296;SDS011;31040;51.622;10.420;2024-01-11T00:10:27;38.88;;;18.90;;
45296;SDS011;31040;51.622;10.420;2024-01-11T00:12:54;43.67;;;19.73;;
45296;SDS011;31040;51.622;10.420;2024-01-11T00:15:21;40.15;;;17.70;;
45296;SDS011;31040;51.622;10.420;2024-01-11T00:17:49;37.55;;;17.63;;
45296;SDS011;31040;51.622;10.420;2024-01-11T00:20:17;32.35;;;15.98;;
45296;SDS011;31040;51.622;10.420;2024-01-11T00:22:44;34.47;;;16.67;;
45296;SDS011;31040;51.622;10.420;2024-01-11T00:25:11;30.75;;;15.88;;
45296;SDS011;31040;51.622;10.420;2024-01-11T00:27:39;35.95;;;16.88;;
45296;SDS011;31040;51.622;10.420;2024-01-11T00:30:07;31.85;;;14.32;;
45296;SDS011;31040;51.622;10.420;2024-01-11T00:32:34;31.95;;;14.75;;
45296;SDS011;31040;51.622;10.420;2024-01-11T00:35:02;29.67;;;14.90;;
45296;SDS011;31040;51.622;10.420;2024-01-11T00:37:29;31.80;;;14.82;;
45296;SDS011;31040;51.622;10.420;2024-01-11T00:39:57;27.55;;;14.63;;
45296;SDS011;31040;51.622;10.420;2024-01-11T00:42:24;29.30;;;14.45;;
45296;SDS011;31040;51.622;10.420;2024-01-11T00:44:52;28.27;;;13.90;;
45296;SDS011;31040;51.622;10.420;2024-01-11T00:47:19;30.30;;;14.93;;
45296;SDS011;31040;51.622;10.420;2024-01-11T00:49:47;31.00;;;15.48;;
45296;SDS011;31040;51.622;10.420;2024-01-11T00:52:14;31.27;;;14.73;;
45296;SDS011;31040;51.622;10.420;2024-01-11T00:54:42;36.08;;;15.88;;
45296;SDS011;31040;51.622;10.420;2024-01-11T00:57:09;29.27;;;14.15;;
45296;SDS011;31040;51.622;10.420;2024-01-11T00:59:37;27.85;;;13.25;;
45296;SDS011;31040;51.622;10.420;2024-01-11T01:02:04;33.42;;;13.70;;
45296;SDS011;31040;51.622;10.420;2024-01-11T01:04:32;30.45;;;12.77;;
45296;SDS011;31040;51.622;10.420;2024-01-11T01:06:59;27.20;;;13.32;;
45296;SDS011;31040;51.622;10.420;2024-01-11T01:09:26;27.52;;;13.25;;
45296;SDS011;31040;51.622;10.420;2024-01-11T01:11:54;21.13;;;12.65;;
45296;SDS011;31040;51.622;10.420;2024-01-11T01:14:21;26.58;;;12.93;;
45296;SDS011;31040;51.622;10.420;2024-01-11T01:16:49;24.17;;;11.25;;
45296;SDS011;31040;51.622;10.420;2024-01-11T01:19:16;20.73;;;11.93;;
45296;SDS011;31040;51.622;10.420;2024-01-11T01:21:44;21.92;;;10.93;;
45296;SDS011;31040;51.622;10.420;2024-01-11T01:24:11;17.55;;;9.80;;
45296;SDS011;31040;51.622;10.420;2024-01-11T01:26:39;19.95;;;10.23;;
45296;SDS011;31040;51.622;10.420;2024-01-11T01:29:06;18.88;;;10.38;;
45296;SDS011;31040;51.622;10.420;2024-01-11T01:31:34;22.80;;;10.98;;
45296;SDS011;31040;51.622;10.420;2024-01-11T01:34:04;24.77;;;10.48;;
45296;SDS011;31040;51.622;10.420;2024-01-11T01:36:31;17.05;;;9.48;;
45296;SDS011;31040;51.622;10.420;2024-01-11T01:38:59;21.60;;;9.88;;
45296;SDS011;31040;51.622;10.420;2024-01-11T01:41:26;20.08;;;10.50;;
45296;SDS011;31040;51.622;10.420;2024-01-11T01:43:54;15.80;;;8.68;;
45296;SDS011;31040;51.622;10.420;2024-01-11T01:46:22;20.17;;;10.60;;
45296;SDS011;31040;51.622;10.420;2024-01-11T01:48:51;22.58;;;10.23;;
45296;SDS011;31040;51.622;10.420;2024-01-11T01:51:19;21.55;;;11.40;;
45296;SDS011;31040;51.622;10.420;2024-01-11T01:53:47;23.70;;;10.98;;
45296;SDS011;31040;51.622;10.420;2024-01-11T01:56:15;18.42;;;9.65;;
45296;SDS011;31040;51.622;10.420;2024-01-11T01:58:44;17.63;;;8.82;;
45296;SDS011;31040;51.622;10.420;2024-01-11T02:01:11;16.52;;;9.10;;
45296;SDS011;31040;51.622;10.420;2024-01-11T02:03:40;18.58;;;9.52;;
45296;SDS011;31040;51.622;10.420;2024-01-11T02:06:08;16.20;;;8.15;;
45296;SDS011;31040;51.622;10.420;2024-01-11T02:08:36;19.10;;;9.23;;
45296;SDS011;31040;51.622;10.420;2024-01-11T02:11:04;16.05;;;7.88;;
45296;SDS011;31040;51.622;10.420;2024-01-11T02:13:31;15.38;;;7.80;;
45296;SDS011;31040;51.622;10.420;2024-01-11T02:15:59;15.90;;;7.63;;
45296;SDS011;31040;51.622;10.420;2024-01-11T02:18:26;18.73;;;8.00;;
45296;SDS011;31040;51.622;10.420;2024-01-11T02:20:54;14.77;;;7.25;;
45296;SDS011;31040;51.622;10.420;2024-01-11T02:23:22;17.95;;;7.57;;
45296;SDS011;31040;51.622;10.420;2024-01-11T02:25:51;15.40;;;7.22;;
45296;SDS011;31040;51.622;10.420;2024-01-11T02:28:19;12.45;;;7.38;;
45296;SDS011;31040;51.622;10.420;2024-01-11T02:30:46;19.92;;;7.57;;
45296;SDS011;31040;51.622;10.420;2024-01-11T02:33:14;14.10;;;7.13;;
45296;SDS011;31040;51.622;10.420;2024-01-11T02:35:43;14.90;;;6.85;;
45296;SDS011;31040;51.622;10.420;2024-01-11T02:38:13;16.67;;;7.32;;
45296;SDS011;31040;51.622;10.420;2024-01-11T02:40:41;12.57;;;6.35;;
45296;SDS011;31040;51.622;10.420;2024-01-11T02:43:09;15.43;;;7.75;;
45296;SDS011;31040;51.622;10.420;2024-01-11T02:45:37;13.75;;;6.93;;
45296;SDS011;31040;51.622;10.420;2024-01-11T02:48:04;13.38;;;6.22;;
45296;SDS011;31040;51.622;10.420;2024-01-11T02:50:32;13.50;;;6.65;;
45296;SDS011;31040;51.622;10.420;2024-01-11T02:53:00;14.15;;;6.53;;
45296;SDS011;31040;51.622;10.420;2024-01-11T02:55:27;14.25;;;7.00;;
45296;SDS011;31040;51.622;10.420;2024-01-11T02:57:54;9.23;;;5.57;;
45296;SDS011;31040;51.622;10.420;2024-01-11T03:00:22;13.98;;;6.47;;
45296;SDS011;31040;51.622;10.420;2024-01-11T03:02:49;14.88;;;5.88;;
45296;SDS011;31040;51.622;10.420;2024-01-11T03:05:17;15.40;;;7.28;;
45296;SDS011;31040;51.622;10.420;2024-01-11T03:07:45;10.52;;;5.93;;
45296;SDS011;31040;51.622;10.420;2024-01-11T03:10:12;13.55;;;5.90;;
45296;SDS011;31040;51.622;10.420;2024-01-11T03:12:39;12.55;;;5.85;;
45296;SDS011;31040;51.622;10.420;2024-01-11T03:15:07;14.20;;;6.13;;
45296;SDS011;31040;51.622;10.420;2024-01-11T03:17:35;11.27;;;6.03;;
45296;SDS011;31040;51.622;10.420;2024-01-11T03:20:02;12.20;;;5.38;;
45296;SDS011;31040;51.622;10.420;2024-01-11T03:22:32;9.07;;;4.95;;
45296;SDS011;31040;51.622;10.420;2024-01-11T03:24:59;18.23;;;7.10;;
45296;SDS011;31040;51.622;10.420;2024-01-11T03:27:27;27.38;;;10.88;;
45296;SDS011;31040;51.622;10.420;2024-01-11T03:29:54;15.23;;;8.43;;
45296;SDS011;31040;51.622;10.420;2024-01-11T03:32:22;19.85;;;9.85;;
45296;SDS011;31040;51.622;10.420;2024-01-11T03:34:49;20.50;;;9.80;;
45296;SDS011;31040;51.622;10.420;2024-01-11T03:37:17;22.05;;;9.00;;
45296;SDS011;31040;51.622;10.420;2024-01-11T03:39:44;21.48;;;10.25;;
45296;SDS011;31040;51.622;10.420;2024-01-11T03:42:11;20.42;;;9.07;;
45296;SDS011;31040;51.622;10.420;2024-01-11T03:44:39;21.80;;;9.32;;
45296;SDS011;31040;51.622;10.420;2024-01-11T03:47:06;21.17;;;9.55;;
45296;SDS011;31040;51.622;10.420;2024-01-11T03:49:34;18.38;;;10.00;;
45296;SDS011;31040;51.622;10.420;2024-01-11T03:52:01;20.63;;;9.50;;
45296;SDS011;31040;51.622;10.420;2024-01-11T03:54:28;17.10;;;8.15;;
45296;SDS011;31040;51.622;10.420;2024-01-11T03:56:56;20.75;;;8.70;;
45296;SDS011;31040;51.622;10.420;2024-01-11T03:59:23;17.15;;;7.75;;
45296;SDS011;31040;51.622;10.420;2024-01-11T04:01:51;18.98;;;8.70;;
45296;SDS011;31040;51.622;10.420;2024-01-11T04:04:19;19.13;;;9.43;;
45296;SDS011;31040;51.622;10.420;2024-01-11T04:06:46;19.58;;;8.95;;
45296;SDS011;31040;51.622;10.420;2024-01-11T04:09:13;18.33;;;8.27;;
45296;SDS011;31040;51.622;10.420;2024-01-11T04:11:41;16.95;;;8.00;;
45296;SDS011;31040;51.622;10.420;2024-01-11T04:14:08;16.23;;;7.93;;
45296;SDS011;31040;51.622;10.420;2024-01-11T04:16:42;18.42;;;8.50;;
45296;SDS011;31040;51.622;10.420;2024-01-11T04:19:10;16.30;;;8.75;;
45296;SDS011;31040;51.622;10.420;2024-01-11T04:21:37;15.80;;;9.40;;
45296;SDS011;31040;51.622;10.420;2024-01-11T04:24:05;15.75;;;8.77;;
45296;SDS011;31040;51.622;10.420;2024-01-11T04:26:33;18.55;;;8.60;;
45296;SDS011;31040;51.622;10.420;2024-01-11T04:29:01;22.52;;;9.50;;
45296;SDS011;31040;51.622;10.420;2024-01-11T04:31:28;16.77;;;9.00;;
45296;SDS011;31040;51.622;10.420;2024-01-11T04:33:56;22.98;;;11.00;;
45296;SDS011;31040;51.622;10.420;2024-01-11T04:36:23;19.63;;;10.73;;
45296;SDS011;31040;51.622;10.420;2024-01-11T04:38:51;21.33;;;9.50;;
45296;SDS011;31040;51.622;10.420;2024-01-11T04:41:18;25.08;;;10.85;;
45296;SDS011;31040;51.622;10.420;2024-01-11T04:43:46;28.58;;;11.65;;
45296;SDS011;31040;51.622;10.420;2024-01-11T04:48:44;26.63;;;12.57;;
45296;SDS011;31040;51.622;10.420;2024-01-11T04:51:12;24.52;;;12.45;;
45296;SDS011;31040;51.622;10.420;2024-01-11T04:53:40;21.08;;;10.50;;
45296;SDS011;31040;51.622;10.420;2024-01-11T04:56:08;31.00;;;12.98;;
45296;SDS011;31040;51.622;10.420;2024-01-11T04:58:36;28.50;;;13.00;;
45296;SDS011;31040;51.622;10.420;2024-01-11T05:01:06;22.10;;;11.18;;
45296;SDS011;31040;51.622;10.420;2024-01-11T05:03:34;26.17;;;12.90;;
45296;SDS011;31040;51.622;10.420;2024-01-11T05:06:02;28.25;;;13.38;;
45296;SDS011;31040;51.622;10.420;2024-01-11T05:08:29;28.23;;;12.60;;
45296;SDS011;31040;51.622;10.420;2024-01-11T05:10:56;27.65;;;12.23;;
45296;SDS011;31040;51.622;10.420;2024-01-11T05:13:24;27.73;;;11.88;;
45296;SDS011;31040;51.622;10.420;2024-01-11T05:15:52;23.02;;;12.23;;
45296;SDS011;31040;51.622;10.420;2024-01-11T05:18:19;28.52;;;12.70;;
45296;SDS011;31040;51.622;10.420;2024-01-11T05:20:47;21.15;;;11.95;;
45296;SDS011;31040;51.622;10.420;2024-01-11T05:23:14;27.88;;;13.30;;
45296;SDS011;31040;51.622;10.420;2024-01-11T05:25:41;26.15;;;12.43;;
45296;SDS011;31040;51.622;10.420;2024-01-11T05:28:09;25.17;;;12.23;;
45296;SDS011;31040;51.622;10.420;2024-01-11T05:30:37;24.85;;;12.27;;
45296;SDS011;31040;51.622;10.420;2024-01-11T05:33:04;22.23;;;10.90;;
45296;SDS011;31040;51.622;10.420;2024-01-11T05:35:32;20.98;;;10.88;;
45296;SDS011;31040;51.622;10.420;2024-01-11T05:37:59;21.48;;;11.07;;
45296;SDS011;31040;51.622;10.420;2024-01-11T05:40:27;18.90;;;9.93;;
45296;SDS011;31040;51.622;10.420;2024-01-11T05:42:55;19.77;;;10.45;;
45296;SDS011;31040;51.622;10.420;2024-01-11T05:45:22;17.65;;;10.43;;
45296;SDS011;31040;51.622;10.420;2024-01-11T05:48:05;22.70;;;10.80;;
45296;SDS011;31040;51.622;10.420;2024-01-11T05:50:33;25.35;;;11.95;;
45296;SDS011;31040;51.622;10.420;2024-01-11T05:53:01;23.55;;;11.70;;
45296;SDS011;31040;51.622;10.420;2024-01-11T05:55:28;17.38;;;9.25;;
45296;SDS011;31040;51.622;10.420;2024-01-11T05:57:55;24.98;;;10.77;;
45296;SDS011;31040;51.622;10.420;2024-01-11T06:00:23;21.42;;;10.80;;
45296;SDS011;31040;51.622;10.420;2024-01-11T06:02:50;25.98;;;10.95;;
45296;SDS011;31040;51.622;10.420;2024-01-11T06:05:18;24.73;;;11.15;;
45296;SDS011;31040;51.622;10.420;2024-01-11T06:07:45;23.00;;;10.88;;
45296;SDS011;31040;51.622;10.420;2024-01-11T06:10:16;27.95;;;13.02;;
45296;SDS011;31040;51.622;10.420;2024-01-11T06:12:44;16.60;;;9.95;;
45296;SDS011;31040;51.622;10.420;2024-01-11T06:15:12;24.67;;;12.00;;
45296;SDS011;31040;51.622;10.420;2024-01-11T06:17:40;26.67;;;11.43;;
45296;SDS011;31040;51.622;10.420;2024-01-11T06:20:08;23.65;;;10.63;;
45296;SDS011;31040;51.622;10.420;2024-01-11T06:22:36;22.48;;;11.35;;
45296;SDS011;31040;51.622;10.420;2024-01-11T06:25:04;29.60;;;11.70;;
45296;SDS011;31040;51.622;10.420;2024-01-11T06:27:31;21.70;;;11.20;;
45296;SDS011;31040;51.622;10.420;2024-01-11T06:29:59;23.20;;;11.95;;
45296;SDS011;31040;51.622;10.420;2024-01-11T06:32:26;27.10;;;13.05;;
45296;SDS011;31040;51.622;10.420;2024-01-11T06:34:58;26.55;;;12.23;;
45296;SDS011;31040;51.622;10.420;2024-01-11T06:37:25;23.85;;;13.30;;
45296;SDS011;31040;51.622;10.420;2024-01-11T06:39:53;24.02;;;12.25;;
45296;SDS011;31040;51.622;10.420;2024-01-11T06:42:20;25.75;;;11.98;;
45296;SDS011;31040;51.622;10.420;2024-01-11T06:44:48;27.13;;;12.35;;
45296;SDS011;31040;51.622;10.420;2024-01-11T06:47:15;25.17;;;12.48;;
45296;SDS011;31040;51.622;10.420;2024-01-11T06:49:43;23.55;;;12.48;;
45296;SDS011;31040;51.622;10.420;2024-01-11T06:52:11;28.25;;;12.48;;
45296;SDS011;31040;51.622;10.420;2024-01-11T06:54:39;21.98;;;12.82;;
45296;SDS011;31040;51.622;10.420;2024-01-11T06:57:07;24.35;;;11.57;;
45296;SDS011;31040;51.622;10.420;2024-01-11T06:59:34;26.08;;;13.63;;
45296;SDS011;31040;51.622;10.420;2024-01-11T07:02:02;23.65;;;12.00;;
45296;SDS011;31040;51.622;10.420;2024-01-11T07:04:29;25.17;;;12.98;;
45296;SDS011;31040;51.622;10.420;2024-01-11T07:07:00;26.98;;;13.95;;
45296;SDS011;31040;51.622;10.420;2024-01-11T07:09:27;26.67;;;13.02;;
45296;SDS011;31040;51.622;10.420;2024-01-11T07:11:54;24.10;;;11.80;;
45296;SDS011;31040;51.622;10.420;2024-01-11T07:14:22;26.05;;;13.65;;
45296;SDS011;31040;51.622;10.420;2024-01-11T07:16:49;26.33;;;12.80;;
45296;SDS011;31040;51.622;10.420;2024-01-11T07:19:17;29.77;;;15.02;;
45296;SDS011;31040;51.622;10.420;2024-01-11T07:21:44;27.92;;;14.68;;
45296;SDS011;31040;51.622;10.420;2024-01-11T07:24:12;31.45;;;14.60;;
45296;SDS011;31040;51.622;10.420;2024-01-11T07:26:39;32.95;;;13.07;;
45296;SDS011;31040;51.622;10.420;2024-01-11T07:29:07;33.65;;;14.00;;
45296;SDS011;31040;51.622;10.420;2024-01-11T07:31:34;40.10;;;15.75;;
45296;SDS011;31040;51.622;10.420;2024-01-11T07:34:02;31.02;;;15.82;;
45296;SDS011;31040;51.622;10.420;2024-01-11T07:36:29;32.25;;;13.98;;
45296;SDS011;31040;51.622;10.420;2024-01-11T07:38:57;29.48;;;13.98;;
45296;SDS011;31040;51.622;10.420;2024-01-11T07:41:24;29.67;;;15.05;;
45296;SDS011;31040;51.622;10.420;2024-01-11T07:43:52;31.45;;;14.70;;
45296;SDS011;31040;51.622;10.420;2024-01-11T07:46:20;32.28;;;16.50;;
45296;SDS011;31040;51.622;10.420;2024-01-11T07:49:03;36.05;;;14.60;;
45296;SDS011;31040;51.622;10.420;2024-01-11T07:51:32;30.27;;;14.63;;
45296;SDS011;31040;51.622;10.420;2024-01-11T07:54:01;28.95;;;17.20;;
45296;SDS011;31040;51.622;10.420;2024-01-11T07:56:29;28.90;;;15.80;;
45296;SDS011;31040;51.622;10.420;2024-01-11T07:58:56;34.08;;;16.58;;
45296;SDS011;31040;51.622;10.420;2024-01-11T08:01:24;28.20;;;15.68;;
45296;SDS011;31040;51.622;10.420;2024-01-11T08:03:51;29.63;;;14.95;;
45296;SDS011;31040;51.622;10.420;2024-01-11T08:06:19;35.13;;;17.40;;
45296;SDS011;31040;51.622;10.420;2024-01-11T08:08:47;33.45;;;16.98;;
45296;SDS011;31040;51.622;10.420;2024-01-11T08:11:19;37.33;;;20.23;;
45296;SDS011;31040;51.622;10.420;2024-01-11T08:13:47;46.50;;;21.40;;
45296;SDS011;31040;51.622;10.420;2024-01-11T08:16:17;79.22;;;33.30;;
45296;SDS011;31040;51.622;10.420;2024-01-11T08:18:45;79.90;;;34.00;;
45296;SDS011;31040;51.622;10.420;2024-01-11T08:21:13;74.75;;;32.47;;
45296;SDS011;31040;51.622;10.420;2024-01-11T08:23:41;58.03;;;25.92;;
45296;SDS011;31040;51.622;10.420;2024-01-11T08:26:14;43.00;;;23.55;;
45296;SDS011;31040;51.622;10.420;2024-01-11T08:28:42;50.70;;;25.20;;
45296;SDS011;31040;51.622;10.420;2024-01-11T08:31:10;46.17;;;24.25;;
45296;SDS011;31040;51.622;10.420;2024-01-11T08:33:37;46.00;;;23.98;;
45296;SDS011;31040;51.622;10.420;2024-01-11T08:36:05;42.67;;;23.85;;
45296;SDS011;31040;51.622;10.420;2024-01-11T08:38:33;48.13;;;23.77;;
45296;SDS011;31040;51.622;10.420;2024-01-11T08:41:02;41.60;;;24.10;;
45296;SDS011;31040;51.622;10.420;2024-01-11T08:43:30;48.22;;;22.83;;
45296;SDS011;31040;51.622;10.420;2024-01-11T08:45:58;45.65;;;22.17;;
45296;SDS011;31040;51.622;10.420;2024-01-11T08:48:27;46.83;;;24.70;;
45296;SDS011;31040;51.622;10.420;2024-01-11T08:50:55;49.58;;;25.42;;
45296;SDS011;31040;51.622;10.420;2024-01-11T08:53:23;53.45;;;26.27;;
45296;SDS011;31040;51.622;10.420;2024-01-11T08:55:50;51.35;;;25.73;;
45296;SDS011;31040;51.622;10.420;2024-01-11T08:58:19;52.50;;;27.38;;
45296;SDS011;31040;51.622;10.420;2024-01-11T09:00:47;50.17;;;25.58;;
45296;SDS011;31040;51.622;10.420;2024-01-11T09:03:14;50.17;;;27.40;;
45296;SDS011;31040;51.622;10.420;2024-01-11T09:05:44;53.45;;;26.63;;
45296;SDS011;31040;51.622;10.420;2024-01-11T09:08:11;55.03;;;27.08;;
45296;SDS011;31040;51.622;10.420;2024-01-11T09:10:39;60.65;;;30.02;;
45296;SDS011;31040;51.622;10.420;2024-01-11T09:13:08;59.05;;;28.83;;
45296;SDS011;31040;51.622;10.420;2024-01-11T09:15:38;54.80;;;28.25;;
45296;SDS011;31040;51.622;10.420;2024-01-11T09:18:05;57.58;;;28.08;;
45296;SDS011;31040;51.622;10.420;2024-01-11T09:20:33;65.45;;;29.50;;
45296;SDS011;31040;51.622;10.420;2024-01-11T09:23:01;60.17;;;29.38;;
45296;SDS011;31040;51.622;10.420;2024-01-11T09:25:30;53.13;;;30.25;;
45296;SDS011;31040;51.622;10.420;2024-01-11T09:27:58;57.58;;;29.42;;
45296;SDS011;31040;51.622;10.420;2024-01-11T09:30:25;50.33;;;27.67;;
45296;SDS011;31040;51.622;10.420;2024-01-11T09:32:53;54.08;;;27.00;;
45296;SDS011;31040;51.622;10.420;2024-01-11T09:35:22;51.78;;;26.17;;
45296;SDS011;31040;51.622;10.420;2024-01-11T09:37:50;60.38;;;27.42;;
45296;SDS011;31040;51.622;10.420;2024-01-11T09:40:18;52.55;;;26.45;;
45296;SDS011;31040;51.622;10.420;2024-01-11T09:42:45;58.20;;;27.77;;
45296;SDS011;31040;51.622;10.420;2024-01-11T09:45:13;55.25;;;27.25;;
45296;SDS011;31040;51.622;10.420;2024-01-11T09:47:44;48.50;;;27.23;;
45296;SDS011;31040;51.622;10.420;2024-01-11T09:50:13;57.97;;;28.10;;
45296;SDS011;31040;51.622;10.420;2024-01-11T09:52:48;56.75;;;28.77;;
45296;SDS011;31040;51.622;10.420;2024-01-11T09:55:16;53.47;;;27.73;;
45296;SDS011;31040;51.622;10.420;2024-01-11T09:57:44;60.30;;;29.75;;
45296;SDS011;31040;51.622;10.420;2024-01-11T10:00:12;61.28;;;29.75;;
45296;SDS011;31040;51.622;10.420;2024-01-11T10:02:40;57.85;;;29.83;;
45296;SDS011;31040;51.622;10.420;2024-01-11T10:05:08;55.03;;;29.23;;
45296;SDS011;31040;51.622;10.420;2024-01-11T10:07:37;54.67;;;28.80;;
45296;SDS011;31040;51.622;10.420;2024-01-11T10:10:05;57.28;;;28.23;;
45296;SDS011;31040;51.622;10.420;2024-01-11T10:12:36;57.45;;;28.83;;
45296;SDS011;31040;51.622;10.420;2024-01-11T10:15:05;56.20;;;28.17;;
45296;SDS011;31040;51.622;10.420;2024-01-11T10:17:34;56.10;;;29.25;;
45296;SDS011;31040;51.622;10.420;2024-01-11T10:20:01;60.70;;;30.35;;
45296;SDS011;31040;51.622;10.420;2024-01-11T10:22:30;61.35;;;31.77;;
45296;SDS011;31040;51.622;10.420;2024-01-11T10:25:18;57.75;;;29.33;;
45296;SDS011;31040;51.622;10.420;2024-01-11T10:27:45;55.00;;;29.40;;
45296;SDS011;31040;51.622;10.420;2024-01-11T10:30:13;61.65;;;28.80;;
45296;SDS011;31040;51.622;10.420;2024-01-11T10:32:44;56.90;;;31.02;;
45296;SDS011;31040;51.622;10.420;2024-01-11T10:35:11;56.03;;;30.05;;
45296;SDS011;31040;51.622;10.420;2024-01-11T10:37:39;65.65;;;32.83;;
45296;SDS011;31040;51.622;10.420;2024-01-11T10:40:08;61.88;;;29.48;;
45296;SDS011;31040;51.622;10.420;2024-01-11T10:42:40;50.75;;;27.50;;
45296;SDS011;31040;51.622;10.420;2024-01-11T10:45:15;49.10;;;27.48;;
45296;SDS011;31040;51.622;10.420;2024-01-11T10:47:55;57.00;;;29.20;;
45296;SDS011;31040;51.622;10.420;2024-01-11T10:50:34;59.22;;;29.23;;
45296;SDS011;31040;51.622;10.420;2024-01-11T10:55:48;57.00;;;30.88;;
45296;SDS011;31040;51.622;10.420;2024-01-11T10:58:17;56.80;;;30.02;;
45296;SDS011;31040;51.622;10.420;2024-01-11T11:00:45;55.83;;;29.92;;
45296;SDS011;31040;51.622;10.420;2024-01-11T11:03:14;53.80;;;29.27;;
45296;SDS011;31040;51.622;10.420;2024-01-11T11:05:43;54.50;;;29.30;;
45296;SDS011;31040;51.622;10.420;2024-01-11T11:08:11;63.30;;;30.08;;
45296;SDS011;31040;51.622;10.420;2024-01-11T11:10:39;55.75;;;29.77;;
45296;SDS011;31040;51.622;10.420;2024-01-11T11:13:08;55.08;;;27.83;;
45296;SDS011;31040;51.622;10.420;2024-01-11T11:15:35;61.47;;;31.73;;
45296;SDS011;31040;51.622;10.420;2024-01-11T11:18:04;63.50;;;30.50;;
45296;SDS011;31040;51.622;10.420;2024-01-11T11:20:32;56.25;;;28.40;;
45296;SDS011;31040;51.622;10.420;2024-01-11T11:23:03;53.95;;;31.60;;
45296;SDS011;31040;51.622;10.420;2024-01-11T11:25:31;57.08;;;30.27;;
45296;SDS011;31040;51.622;10.420;2024-01-11T11:27:59;51.95;;;28.30;;
45296;SDS011;31040;51.622;10.420;2024-01-11T11:30:32;53.85;;;30.48;;
45296;SDS011;31040;51.622;10.420;2024-01-11T11:33:09;60.35;;;31.55;;
45296;SDS011;31040;51.622;10.420;2024-01-11T11:35:37;56.17;;;30.70;;
45296;SDS011;31040;51.622;10.420;2024-01-11T11:38:05;60.72;;;31.92;;
45296;SDS011;31040;51.622;10.420;2024-01-11T11:40:33;52.13;;;29.45;;
45296;SDS011;31040;51.622;10.420;2024-01-11T11:43:05;53.47;;;30.23;;
45296;SDS011;31040;51.622;10.420;2024-01-11T11:45:33;60.53;;;30.48;;
45296;SDS011;31040;51.622;10.420;2024-01-11T11:48:01;51.25;;;29.10;;
45296;SDS011;31040;51.622;10.420;2024-01-11T11:50:29;62.55;;;29.15;;
45296;SDS011;31040;51.622;10.420;2024-01-11T11:52:57;55.80;;;29.00;;
45296;SDS011;31040;51.622;10.420;2024-01-11T11:55:25;57.75;;;29.75;;
45296;SDS011;31040;51.622;10.420;2024-01-11T11:57:52;64.93;;;28.58;;
45296;SDS011;31040;51.622;10.420;2024-01-11T12:00:20;63.25;;;31.77;;
45296;SDS011;31040;51.622;10.420;2024-01-11T12:02:47;60.97;;;31.88;;
45296;SDS011;31040;51.622;10.420;2024-01-11T12:05:17;63.80;;;32.78;;
45296;SDS011;31040;51.622;10.420;2024-01-11T12:07:45;56.35;;;29.45;;
45296;SDS011;31040;51.622;10.420;2024-01-11T12:10:13;58.70;;;30.35;;
45296;SDS011;31040;51.622;10.420;2024-01-11T12:12:41;63.33;;;29.83;;
45296;SDS011;31040;51.622;10.420;2024-01-11T12:15:08;53.47;;;28.48;;
45296;SDS011;31040;51.622;10.420;2024-01-11T12:17:37;52.40;;;28.10;;
45296;SDS011;31040;51.622;10.420;2024-01-11T12:20:09;50.85;;;27.67;;
45296;SDS011;31040;51.622;10.420;2024-01-11T12:22:37;60.17;;;29.42;;
45296;SDS011;31040;51.622;10.420;2024-01-11T12:25:04;52.78;;;26.30;;
45296;SDS011;31040;51.622;10.420;2024-01-11T12:27:32;54.83;;;26.45;;
45296;SDS011;31040;51.622;10.420;2024-01-11T12:30:00;46.22;;;25.73;;
45296;SDS011;31040;51.622;10.420;2024-01-11T12:32:29;41.67;;;22.42;;
45296;SDS011;31040;51.622;10.420;2024-01-11T12:34:57;48.25;;;26.10;;
45296;SDS011;31040;51.622;10.420;2024-01-11T12:37:24;51.25;;;25.15;;
45296;SDS011;31040;51.622;10.420;2024-01-11T12:39:58;44.60;;;24.08;;
45296;SDS011;31040;51.622;10.420;2024-01-11T12:42:27;51.45;;;26.92;;
45296;SDS011;31040;51.622;10.420;2024-01-11T12:44:55;43.90;;;24.00;;
45296;SDS011;31040;51.622;10.420;2024-01-11T12:47:24;40.05;;;22.67;;
45296;SDS011;31040;51.622;10.420;2024-01-11T12:49:52;45.75;;;24.08;;
45296;SDS011;31040;51.622;10.420;2024-01-11T12:52:20;53.58;;;25.95;;
45296;SDS011;31040;51.622;10.420;2024-01-11T12:54:47;52.25;;;24.65;;
45296;SDS011;31040;51.622;10.420;2024-01-11T12:57:19;50.83;;;24.55;;
45296;SDS011;31040;51.622;10.420;2024-01-11T12:59:47;45.28;;;23.58;;
45296;SDS011;31040;51.622;10.420;2024-01-11T13:02:15;45.60;;;24.08;;
45296;SDS011;31040;51.622;10.420;2024-01-11T13:04:45;38.85;;;22.58;;
45296;SDS011;31040;51.622;10.420;2024-01-11T13:07:13;42.75;;;23.42;;
45296;SDS011;31040;51.622;10.420;2024-01-11T13:09:42;43.17;;;22.27;;
45296;SDS011;31040;51.622;10.420;2024-01-11T13:12:09;44.70;;;22.33;;
45296;SDS011;31040;51.622;10.420;2024-01-11T13:14:37;40.83;;;21.75;;
45296;SDS011;31040;51.622;10.420;2024-01-11T13:17:06;40.50;;;22.98;;
45296;SDS011;31040;51.622;10.420;2024-01-11T13:19:34;39.38;;;22.38;;
45296;SDS011;31040;51.622;10.420;2024-01-11T13:22:02;45.38;;;25.63;;
45296;SDS011;31040;51.622;10.420;2024-01-11T13:24:29;43.80;;;22.90;;
45296;SDS011;31040;51.622;10.420;2024-01-11T13:26:57;45.33;;;20.67;;
45296;SDS011;31040;51.622;10.420;2024-01-11T13:29:25;42.15;;;19.77;;
45296;SDS011;31040;51.622;10.420;2024-01-11T13:31:52;40.70;;;21.48;;
45296;SDS011;31040;51.622;10.420;2024-01-11T13:34:20;36.80;;;20.52;;
45296;SDS011;31040;51.622;10.420;2024-01-11T13:36:47;47.03;;;22.48;;
45296;SDS011;31040;51.622;10.420;2024-01-11T13:39:15;41.85;;;22.45;;
45296;SDS011;31040;51.622;10.420;2024-01-11T13:41:44;45.30;;;22.10;;
45296;SDS011;31040;51.622;10.420;2024-01-11T13:44:12;36.65;;;21.30;;
45296;SDS011;31040;51.622;10.420;2024-01-11T13:46:40;39.42;;;21.98;;
45296;SDS011;31040;51.622;10.420;2024-01-11T13:49:07;40.72;;;21.85;;
45296;SDS011;31040;51.622;10.420;2024-01-11T13:51:35;46.58;;;22.70;;
45296;SDS011;31040;51.622;10.420;2024-01-11T13:54:18;37.45;;;20.98;;
45296;SDS011;31040;51.622;10.420;2024-01-11T13:56:50;40.00;;;21.67;;
45296;SDS011;31040;51.622;10.420;2024-01-11T13:59:20;35.97;;;21.20;;
45296;SDS011;31040;51.622;10.420;2024-01-11T14:01:48;39.70;;;21.65;;
45296;SDS011;31040;51.622;10.420;2024-01-11T14:04:15;39.03;;;20.58;;
45296;SDS011;31040;51.622;10.420;2024-01-11T14:06:42;41.95;;;21.35;;
45296;SDS011;31040;51.622;10.420;2024-01-11T14:09:10;34.40;;;19.17;;
45296;SDS011;31040;51.622;10.420;2024-01-11T14:11:39;34.45;;;16.58;;
45296;SDS011;31040;51.622;10.420;2024-01-11T14:14:06;30.17;;;16.00;;
45296;SDS011;31040;51.622;10.420;2024-01-11T14:16:33;31.90;;;17.63;;
45296;SDS011;31040;51.622;10.420;2024-01-11T14:19:01;37.53;;;18.55;;
45296;SDS011;31040;51.622;10.420;2024-01-11T14:21:29;36.75;;;20.15;;